Aviation Digital Data Service (ADDS)

Output produced by METARs form (1454 UTC 25 August 2016)
found at http://aviationweather.gov/adds/metars/
 
KAGC 251409Z 2514/2612 22011KT P6SM BKN009 BKN015 OVC022 
     FM251500 22007KT P6SM SCT035 
     FM260000 25005KT P6SM VCTS BKN035CB 
     FM260400 22006KT P6SM VCSH BKN025